Flight Track Log - Related Links

Times and Time Zones

All times are in EDT time to prevent confusion due to time zone crossing. See the N770NC flight status page for this flight to view local times or setup timezone preferences in your user account.

Time Position Orientation Groundspeed Altitude Reporting Facility
EDT Latitude Longitude Course Direction KTS MPH feet Rate Location/Type
Fri 12:20:30 PM 33.6167 -84.5000 54° Northeast 232 267 3,300  Level Atlanta TRACON
Fri 12:21:44 PM 33.5697 -84.5997 241° Southwest 320 368 6,000 2,149 Climbing Atlanta Center
Fri 12:22:00 PM 33.7647 -84.0650 67° East  Level FlightAware
Fri 12:22:44 PM 33.4758 -84.5892 175° South 309 356 8,100  Level Atlanta Center
Fri 12:23:00 PM 33.8072 -83.9438 67° East  Level FlightAware
Fri 12:23:44 PM 33.4531 -84.5019 107° East 269 310 10,300  Level Atlanta Center
Fri 12:24:00 PM 33.8570 -83.8194 59° Northeast  Level FlightAware
Fri 12:24:44 PM 33.4578 -84.3975 87° East 308 354 11,800  Level Atlanta Center
Fri 12:25:00 PM 33.9203 -83.7121 54° Northeast  Level FlightAware
Fri 12:25:44 PM 33.5122 -84.3028 55° Northeast 316 364 13,400  Level Atlanta Center
Fri 12:26:44 PM 33.5625 -84.2058 58° Northeast 335 386 15,300 1,900 Climbing Atlanta Center
Fri 12:27:44 PM 33.6147 -84.1036 58° Northeast 340 391 17,200 1,900 Climbing Atlanta Center
Fri 12:28:44 PM 33.6669 -84.0014 58° Northeast 345 397 19,100 1,900 Climbing Atlanta Center
Fri 12:29:44 PM 33.7233 -83.8989 56° Northeast 351 404 21,000 1,700 Climbing Atlanta Center
Fri 12:30:44 PM 33.7711 -83.7964 61° Northeast 351 404 22,500 1,300 Climbing Atlanta Center
Fri 12:31:44 PM 33.8250 -83.6886 59° Northeast 361 415 23,600 1,000 Climbing Atlanta Center
Fri 12:32:44 PM 33.8706 -83.5936 60° Northeast 361 415 24,500 1,050 Climbing Atlanta Center
Fri 12:33:44 PM 33.9350 -83.4881 54° Northeast 373 429 25,700 1,150 Climbing Atlanta Center
Fri 12:34:44 PM 33.9969 -83.3847 54° Northeast 381 438 26,800 1,000 Climbing Atlanta Center
Fri 12:35:44 PM 34.0592 -83.2764 55° Northeast 386 444 27,700 950 Climbing Atlanta Center
Fri 12:36:44 PM 34.1314 -83.1806 48° Northeast 386 444 28,700 650 Climbing Atlanta Center
Fri 12:37:44 PM 34.2058 -83.0767 49° Northeast 395 455 29,000 150 Climbing Atlanta Center
Fri 12:38:44 PM 34.2800 -82.9703 50° Northeast 411 473 29,000  Level Atlanta Center
Fri 12:39:44 PM 34.3647 -82.8586 47° Northeast 411 473 29,000  Level Atlanta Center
Fri 12:40:44 PM 34.4408 -82.7492 50° Northeast 411 473 29,000  Level Atlanta Center
Fri 12:41:44 PM 34.5211 -82.6444 47° Northeast 411 473 29,000  Level Atlanta Center
Fri 12:42:44 PM 34.5931 -82.5550 46° Northeast 411 473 29,000  Level Atlanta Center
Fri 12:43:44 PM 34.6689 -82.4453 50° Northeast 416 479 29,000  Level Atlanta Center
Fri 12:44:44 PM 34.7531 -82.3372 47° Northeast 423 487 29,000  Level Atlanta Center
Fri 12:45:44 PM 34.8328 -82.2319 47° Northeast 423 487 29,000  Level Atlanta Center
Fri 12:46:44 PM 34.9061 -82.1164 52° Northeast 423 487 29,000  Level Atlanta Center
Fri 12:47:44 PM 34.9836 -82.0056 50° Northeast 428 493 29,000  Level Atlanta Center
Fri 12:48:44 PM 35.0525 -81.8822 56° Northeast 439 505 29,000  Level Atlanta Center
Fri 12:49:44 PM 35.1297 -81.7608 52° Northeast 444 511 29,000  Level Atlanta Center
Fri 12:50:44 PM 35.2106 -81.6289 53° Northeast 444 511 29,000 250 Level Atlanta Center
Fri 12:51:44 PM 35.2725 -81.4922 61° Northeast 450 518 29,500 800 Climbing Atlanta Center
Fri 12:52:44 PM 35.3322 -81.3606 61° Northeast 455 524 30,600 1,100 Climbing Atlanta Center
Fri 12:53:44 PM 35.3942 -81.2311 60° Northeast 441 507 31,700 1,100 Climbing Atlanta Center
Fri 12:54:44 PM 35.4536 -81.0992 61° Northeast 441 507 32,800 650 Climbing Atlanta Center
Fri 12:55:44 PM 35.5131 -80.9719 60° Northeast 436 502 33,000 100 Climbing Atlanta Center
Fri 12:56:44 PM 35.5725 -80.8447 60° Northeast 431 496 33,000  Level Atlanta Center
Fri 12:57:44 PM 35.6400 -80.7244 55° Northeast 422 486 33,000  Level Atlanta Center
Fri 12:59:24 PM 35.7581 -80.5244 54° Northeast 421 484 33,000  Level Washington Center
Fri 01:00:24 PM 35.8317 -80.4061 52° Northeast 421 484 33,000  Level Washington Center
Fri 01:01:25 PM 35.9033 -80.2847 54° Northeast 421 484 33,000  Level Washington Center
Fri 01:02:26 PM 35.9789 -80.1686 51° Northeast 426 490 33,000  Level Washington Center
Fri 01:03:24 PM 36.0453 -80.0644 52° Northeast 433 498 33,000  Level Washington Center
Fri 01:04:24 PM 36.1128 -79.9294 58° Northeast 439 505 33,000  Level Washington Center
Fri 01:05:24 PM 36.1864 -79.8022 54° Northeast 447 514 33,000 -545 Level Washington Center
Fri 01:06:25 PM 36.2639 -79.6675 54° Northeast 442 509 31,900 -1,328 Descending Washington Center
Fri 01:07:26 PM 36.3233 -79.5158 64° Northeast 458 527 30,300 -1,041 Descending Washington Center
Fri 01:08:26 PM 36.3883 -79.3744 60° Northeast 472 543 29,800 -857 Descending Washington Center
Fri 01:09:25 PM 36.4681 -79.2286 56° Northeast 485 558 28,600 -1,000 Descending Washington Center
Fri 01:10:26 PM 36.5386 -79.1053 55° Northeast 491 565 27,800 -992 Descending Washington Center
Fri 01:11:26 PM 36.6153 -78.9767 53° Northeast 474 545 26,600 -1,373 Descending Washington Center
Fri 01:12:24 PM 36.6831 -78.8606 54° Northeast 443 510 25,100 -807 Descending Washington Center
Fri 01:13:25 PM 36.7506 -78.7569 51° Northeast 409 471 25,000 -49 Descending Washington Center
Fri 01:14:26 PM 36.8097 -78.6453 56° Northeast 393 452 25,000 -151 Level Washington Center
Fri 01:15:24 PM 36.8797 -78.5261 54° Northeast 386 444 24,700 -504 Descending Washington Center
Fri 01:16:25 PM 36.9342 -78.4294 55° Northeast 386 444 24,000 -787 Descending Washington Center
Fri 01:17:26 PM 36.9542 -78.2794 80° East 381 438 23,100 -857 Descending Washington Center
Fri 01:18:24 PM 36.9694 -78.1525 81° East 381 438 22,300 -559 Descending Washington Center
Fri 01:19:24 PM 36.9803 -78.0411 83° East 369 425 22,000 -149 Descending Washington Center
Fri 01:20:25 PM 37.0403 -77.9597 47° Northeast 321 369 22,000  Level Washington Center
Fri 01:21:25 PM 37.1386 -77.9497 North 286 329 22,000  Level Washington Center
Fri 01:22:26 PM 37.2561 -77.9089 15° North 352 405 22,000  Level Washington Center
Fri 01:23:24 PM 37.3572 -77.8572 22° Northeast 375 432 22,000  Level Washington Center
Fri 01:24:24 PM 37.4603 -77.8183 17° North 380 437 22,000 -100 Level Washington Center
Fri 01:25:24 PM 37.5650 -77.7872 13° North 380 437 21,800 -1,289 Descending Washington Center
Fri 01:26:25 PM 37.6639 -77.7483 17° North 380 437 19,400 -2,410 Descending Washington Center
Fri 01:27:26 PM 37.7544 -77.6878 28° Northeast 370 426 16,900 -2,420 Descending Washington Center
Fri 01:28:24 PM 37.8389 -77.6297 28° Northeast 357 411 14,600 -2,339 Descending Washington Center
Fri 01:29:24 PM 37.9231 -77.5819 24° Northeast 339 390 12,300 -1,918 Descending Washington Center
Fri 01:30:26 PM 38.0031 -77.5392 23° Northeast 318 366 10,700 -1,131 Descending Washington Center
Fri 01:31:26 PM 38.0789 -77.5042 20° North 304 350 10,000 -356 Descending Washington Center
Fri 01:32:24 PM 38.1483 -77.4636 25° Northeast 283 326 10,000 -101 Level Washington Center
Fri 01:33:25 PM 38.2114 -77.4203 28° Northeast 269 310 9,800 -595 Descending Washington Center
Fri 01:34:25 PM 38.2789 -77.3825 24° Northeast 255 293 8,800 -942 Descending Washington Center
Fri 01:35:26 PM 38.3517 -77.3789 North 249 287 7,900 -958 Descending Washington Center
Fri 01:36:24 PM 38.4208 -77.3700 North 249 287 6,900 -712 Descending Washington Center
Fri 01:37:24 PM 38.4875 -77.3636 North 249 287 6,500 -836 Descending Washington Center
Fri 01:38:26 PM 38.5606 -77.3653 359° North 249 287 5,200 -1,230 Descending Washington Center
Fri 01:39:26 PM 38.6247 -77.3881 345° North 249 287 4,000 -750 Descending Washington Center
Fri 01:40:02 PM 38.6500 -77.4167 319° Northwest 207 238 4,000 63 Level Potomac TRACON
Fri 01:41:02 PM 38.7000 -77.4500 333° Northwest 182 209 4,100  Climbing Potomac TRACON
Fri 01:42:02 PM 38.7500 -77.4667 345° North 179 206 4,000 -526 Descending Potomac TRACON
Fri 01:42:56 PM 38.8000 -77.4667 360° North 191 220 3,100 -1,000 Descending Potomac TRACON

Login

Don't have an account? Register now (free) for customized features, flight alerts, and more!